»·PEaware :: JBU8833 KEYW-MYNN

JBU8833 :: KEYW-MYNN

FLIGHT INFORMATION

Flight Status: Arrived
Operator:
JetBlue Airways
More flights by this operator :: More flights under this callsign
Pilot: Cooper L. (8467)
Aircraft: DEHAVILLAND DASH 8 400
(DH8D)
More flights by this aircraft type
Origin: KEYW Key West Intl
United States
Destination: MYNN Nassau Intl
Bahamas
More flights between these airports :: More routes between these airports
Route: FIS MTH
File this flight plan on PilotEdge
Remarks:
Altitude:
(Current/Filed)
25,000ft
Speed:
(Current/Filed)
250kts
Departed: 28-Feb-16 07:40 PM
Arrived: 28-Feb-16 08:31 PM
Distance/Time
Traveled:
236nm/0:51
Distance/Time
To Go:
Arrived

Flight Plot

Page will automatically refresh every two minutes.


Map Options




Map Legend


Flown Route
Filed Route
Departure Airport
Arrival Airport
Navaid (VOR, NDB)
Fix

Horizontal Profiles

Position Reports

Time Latitude Longitude Heading Altitude Ground
Speed
28-Feb-16 19:24 24.555298 -81.758055 290 9ft 9kts
28-Feb-16 19:25 24.555270 -81.764935 267 9ft 28kts
28-Feb-16 19:26 24.555248 -81.765848 269 9ft 0kts
28-Feb-16 19:27 24.555248 -81.765848 269 9ft 0kts
28-Feb-16 19:28 24.555248 -81.765848 269 9ft 0kts
28-Feb-16 19:29 24.555248 -81.765848 269 9ft 0kts
28-Feb-16 19:30 24.555248 -81.765848 269 9ft 0kts
28-Feb-16 19:31 24.555307 -81.766309 308 9ft 3kts
28-Feb-16 19:32 24.555710 -81.766521 357 9ft 9kts
28-Feb-16 19:33 24.557163 -81.743145 82 732ft 134kts
28-Feb-16 19:34 24.567767 -81.691914 66 2768ft 193kts
28-Feb-16 19:35 24.597908 -81.648586 41 5437ft 199kts
28-Feb-16 19:36 24.600634 -81.597330 110 7394ft 202kts
28-Feb-16 19:37 24.594158 -81.535305 88 9876ft 218kts
28-Feb-16 19:38 24.602155 -81.467622 82 12440ft 235kts
28-Feb-16 19:39 24.614784 -81.388588 82 13968ft 287kts
28-Feb-16 19:40 24.628796 -81.304607 83 15980ft 300kts
28-Feb-16 19:41 24.643980 -81.212840 84 17729ft 313kts
28-Feb-16 19:42 24.659431 -81.118671 84 19233ft 325kts
28-Feb-16 19:43 24.675472 -81.020474 84 20549ft 337kts
28-Feb-16 19:44 24.692127 -80.918097 84 21709ft 347kts
28-Feb-16 19:45 24.709207 -80.812357 83 22767ft 354kts
28-Feb-16 19:46 24.723954 -80.720829 82 23978ft 351kts
28-Feb-16 19:47 24.741076 -80.614302 80 24848ft 360kts
28-Feb-16 19:48 24.758696 -80.504293 80 25331ft 379kts
28-Feb-16 19:49 24.777285 -80.387399 80 25329ft 403kts
28-Feb-16 19:50 24.796785 -80.265457 81 25313ft 416kts
28-Feb-16 19:51 24.816844 -80.138094 81 25314ft 421kts
28-Feb-16 19:52 24.836784 -80.010591 81 25315ft 424kts
28-Feb-16 19:53 24.856678 -79.882642 81 25317ft 426kts
28-Feb-16 19:54 24.873297 -79.753819 84 25319ft 427kts
28-Feb-16 19:55 24.888082 -79.624260 83 25320ft 428kts
28-Feb-16 19:56 24.902857 -79.494836 83 25320ft 422kts
28-Feb-16 19:57 24.917367 -79.367046 82 25323ft 420kts
28-Feb-16 19:58 24.931651 -79.242155 83 25310ft 417kts
28-Feb-16 19:59 24.941491 -79.115503 87 25312ft 415kts
28-Feb-16 20:00 24.948342 -78.991899 87 25306ft 393kts
28-Feb-16 20:01 24.954773 -78.874825 87 25310ft 374kts
28-Feb-16 20:02 24.960837 -78.762864 87 25313ft 361kts
28-Feb-16 20:03 24.966514 -78.656476 87 25321ft 351kts
28-Feb-16 20:04 24.971964 -78.550638 87 25335ft 344kts
28-Feb-16 20:05 24.977333 -78.446537 87 25347ft 339kts
28-Feb-16 20:06 24.982473 -78.345057 87 24751ft 360kts
28-Feb-16 20:07 24.988560 -78.228740 87 21851ft 392kts
28-Feb-16 20:08 24.995921 -78.110913 85 20032ft 364kts
28-Feb-16 20:09 25.003791 -78.000933 86 16967ft 351kts
28-Feb-16 20:10 25.028650 -77.904759 35 14704ft 298kts
28-Feb-16 20:11 25.048089 -77.835190 113 5812ft 269kts
28-Feb-16 20:12 25.027351 -77.773665 98 2684ft 184kts
28-Feb-16 20:13 25.061002 -77.775603 281 2385ft 246kts
28-Feb-16 20:14 25.016512 -77.839573 189 2311ft 264kts
28-Feb-16 20:15 25.000354 -77.799275 55 2347ft 183kts
28-Feb-16 20:16 25.018405 -77.743634 79 2347ft 208kts
28-Feb-16 20:17 25.025900 -77.677488 84 2320ft 212kts
28-Feb-16 20:18 25.027184 -77.661906 84 2305ft 190kts
28-Feb-16 20:19 25.029992 -77.632186 75 2038ft 152kts
28-Feb-16 20:20 25.034147 -77.590520 88 1515ft 142kts
28-Feb-16 20:21 25.035889 -77.546984 89 1517ft 144kts
28-Feb-16 20:22 25.035754 -77.506559 86 384ft 118kts
28-Feb-16 20:23 25.036095 -77.471791 92 23ft 77kts
28-Feb-16 20:24 25.036098 -77.464513 87 23ft 26kts
28-Feb-16 20:25 25.038568 -77.458652 353 23ft 17kts
28-Feb-16 20:26 25.045023 -77.465435 329 23ft 15kts
28-Feb-16 20:27 25.047157 -77.465442 357 23ft 0kts
28-Feb-16 20:28 25.047157 -77.465442 357 23ft 0kts
28-Feb-16 20:29 25.047157 -77.465442 357 23ft 0kts
28-Feb-16 20:30 25.047157 -77.465442 357 23ft 0kts
28-Feb-16 20:31 25.047157 -77.465442 357 23ft 0kts
28-Feb-16 20:32 25.047157 -77.465442 357 23ft 0kts
28-Feb-16 20:33 25.047157 -77.465442 357 23ft 0kts
28-Feb-16 20:34 25.047157 -77.465442 357 23ft 0kts
28-Feb-16 20:35 25.047157 -77.465442 357 23ft 0kts
28-Feb-16 20:36 25.047157 -77.465442 357 23ft 0kts
28-Feb-16 20:37 25.047157 -77.465442 357 23ft 0kts
28-Feb-16 20:38 25.047157 -77.465442 357 23ft 0kts
28-Feb-16 20:39 25.047157 -77.465442 357 23ft 0kts

Navigation Log

Ident Type
Flight plan parsing failed, navigation log unavailable